sim
Sign-in with your pilot id or email,
or register
Callsign
Passwort

Schedule Details

Flight Number: EWG9546
Departure: Dusseldorf International Airport (EDDL) at 07:25
Arrival: Fuerteventura Airport (GCFV) at 12:05
Route: Eurowings Passenger Schedule. Enter filed route here before submitting Pirep.

Weather Information
Getting current METAR information for EDDL 172250Z 15008KT 9999 -RA BKN024 19/17 Q1007 BECMG RA
Getting current METAR information for GCFV 172300Z AUTO 03003KT 010V070 9000 4200S NSC 23/20 Q1014

Schedule Frequency

Route Map